This is the latest recevied weather packets stored in our database for station/object DG4MND-4. If no packets are shown the sender has not sent any weather packets the latest 10 day(s).
| Time | Temp. | Humidity | Pressure | Rain* | Wind** | Luminosity | Snow |
|---|---|---|---|---|---|---|---|
| 1777617063 | 7.22° C | 51% | 1025.4 hPa | 0 mm | - | - | - |
| 1777616457 | 7.22° C | 52% | 1025.3 hPa | 0 mm | - | - | - |
| 1777615851 | 7.22° C | 52% | 1025.3 hPa | 0 mm | - | - | - |
| 1777615248 | 6.11° C | 53% | 1025.2 hPa | 0 mm | - | - | - |
| 1777614644 | 6.11° C | 52% | 1025.1 hPa | 0 mm | - | - | - |
| 1777614041 | 6.11° C | 54% | 1025 hPa | 0 mm | - | - | - |
| 1777613437 | 5.56° C | 55% | 1024.9 hPa | 0 mm | - | - | - |
| 1777612834 | 4.44° C | 58% | 1024.9 hPa | 0 mm | - | - | - |
| 1777612230 | 3.33° C | 61% | 1024.9 hPa | 0 mm | - | - | - |
| 1777611627 | 2.78° C | 65% | 1024.7 hPa | 0 mm | - | - | - |
| 1777611026 | 2.22° C | 66% | 1024.7 hPa | 0 mm | - | - | - |
| 1777610420 | 2.22° C | 67% | 1024.6 hPa | 0 mm | - | - | - |
| 1777609817 | 1.67° C | 68% | 1024.6 hPa | 0 mm | - | - | - |
| 1777609277 | 1.11° C | 71% | 1024.5 hPa | 0 mm | - | - | - |
| 1777608670 | 0.56° C | 73% | 1024.7 hPa | 0 mm | - | - | - |
| 1777608067 | 0.56° C | 72% | 1024.5 hPa | 0 mm | - | - | - |
| 1777607466 | 0.56° C | 73% | 1024.5 hPa | 0 mm | - | - | - |
| 1777606259 | 1.11° C | 71% | 1024.4 hPa | 0 mm | - | - | - |
| 1777605652 | 1.11° C | 69% | 1024.4 hPa | 0 mm | - | - | - |
| 1777605049 | 2.22° C | 65% | 1024.4 hPa | 0 mm | - | - | - |
| 1777604446 | 2.78° C | 63% | 1024.5 hPa | 0 mm | - | - | - |
| 1777603842 | 3.33° C | 60% | 1024.3 hPa | 0 mm | - | - | - |
| 1777603242 | 3.33° C | 58% | 1024.4 hPa | 0 mm | - | - | - |
| 1777602635 | 3.89° C | 56% | 1024.2 hPa | 0 mm | - | - | - |
| 1777602035 | 3.89° C | 55% | 1024.3 hPa | 0 mm | - | - | - |
* Rain latest hour (hover to see other rain measurements)
** Current wind speed in m/s (hover to see current wind gust speed)